sensor_id;sensor_type;location;lat;lon;timestamp;P1;durP1;ratioP1;P2;durP2;ratioP2
7199;SDS011;3641;49.082;8.200;2023-06-22T00:02:00;11.40;;;6.80;;
7199;SDS011;3641;49.082;8.200;2023-06-22T00:04:27;9.00;;;6.63;;
7199;SDS011;3641;49.082;8.200;2023-06-22T00:06:53;9.95;;;7.15;;
7199;SDS011;3641;49.082;8.200;2023-06-22T00:09:20;12.15;;;6.53;;
7199;SDS011;3641;49.082;8.200;2023-06-22T00:11:47;8.95;;;5.88;;
7199;SDS011;3641;49.082;8.200;2023-06-22T00:14:14;11.88;;;6.82;;
7199;SDS011;3641;49.082;8.200;2023-06-22T00:16:40;11.07;;;6.82;;
7199;SDS011;3641;49.082;8.200;2023-06-22T00:19:07;13.80;;;7.10;;
7199;SDS011;3641;49.082;8.200;2023-06-22T00:21:36;10.00;;;7.38;;
7199;SDS011;3641;49.082;8.200;2023-06-22T00:24:03;11.20;;;6.60;;
7199;SDS011;3641;49.082;8.200;2023-06-22T00:26:31;14.63;;;7.78;;
7199;SDS011;3641;49.082;8.200;2023-06-22T00:28:58;13.40;;;7.82;;
7199;SDS011;3641;49.082;8.200;2023-06-22T00:31:25;12.70;;;7.78;;
7199;SDS011;3641;49.082;8.200;2023-06-22T00:33:51;12.45;;;7.80;;
7199;SDS011;3641;49.082;8.200;2023-06-22T00:36:32;13.65;;;7.63;;
7199;SDS011;3641;49.082;8.200;2023-06-22T00:38:58;12.23;;;7.55;;
7199;SDS011;3641;49.082;8.200;2023-06-22T00:41:25;16.02;;;8.25;;
7199;SDS011;3641;49.082;8.200;2023-06-22T00:43:53;15.43;;;7.90;;
7199;SDS011;3641;49.082;8.200;2023-06-22T00:46:21;14.27;;;7.85;;
7199;SDS011;3641;49.082;8.200;2023-06-22T00:48:48;13.45;;;8.07;;
7199;SDS011;3641;49.082;8.200;2023-06-22T00:51:16;13.07;;;7.53;;
7199;SDS011;3641;49.082;8.200;2023-06-22T00:53:42;13.85;;;7.55;;
7199;SDS011;3641;49.082;8.200;2023-06-22T00:56:09;14.13;;;7.78;;
7199;SDS011;3641;49.082;8.200;2023-06-22T00:58:38;15.68;;;8.18;;
7199;SDS011;3641;49.082;8.200;2023-06-22T01:01:06;16.42;;;8.25;;
7199;SDS011;3641;49.082;8.200;2023-06-22T01:03:34;12.75;;;8.00;;
7199;SDS011;3641;49.082;8.200;2023-06-22T01:06:02;13.00;;;8.00;;
7199;SDS011;3641;49.082;8.200;2023-06-22T01:08:36;13.85;;;8.18;;
7199;SDS011;3641;49.082;8.200;2023-06-22T01:11:10;15.35;;;10.43;;
7199;SDS011;3641;49.082;8.200;2023-06-22T01:13:45;15.20;;;9.82;;
7199;SDS011;3641;49.082;8.200;2023-06-22T01:16:18;14.20;;;9.93;;
7199;SDS011;3641;49.082;8.200;2023-06-22T01:18:50;19.20;;;9.27;;
7199;SDS011;3641;49.082;8.200;2023-06-22T01:21:19;12.80;;;8.45;;
7199;SDS011;3641;49.082;8.200;2023-06-22T01:23:50;14.23;;;8.57;;
7199;SDS011;3641;49.082;8.200;2023-06-22T01:26:25;12.75;;;8.07;;
7199;SDS011;3641;49.082;8.200;2023-06-22T01:29:02;14.52;;;8.23;;
7199;SDS011;3641;49.082;8.200;2023-06-22T01:31:30;15.30;;;8.85;;
7199;SDS011;3641;49.082;8.200;2023-06-22T01:34:00;14.45;;;8.25;;
7199;SDS011;3641;49.082;8.200;2023-06-22T01:36:29;11.90;;;8.35;;
7199;SDS011;3641;49.082;8.200;2023-06-22T01:38:58;14.27;;;8.45;;
7199;SDS011;3641;49.082;8.200;2023-06-22T01:41:26;12.90;;;8.35;;
7199;SDS011;3641;49.082;8.200;2023-06-22T01:43:55;11.57;;;8.07;;
7199;SDS011;3641;49.082;8.200;2023-06-22T01:46:23;13.90;;;8.43;;
7199;SDS011;3641;49.082;8.200;2023-06-22T01:48:50;15.38;;;9.02;;
7199;SDS011;3641;49.082;8.200;2023-06-22T01:51:18;13.13;;;8.30;;
7199;SDS011;3641;49.082;8.200;2023-06-22T01:53:44;11.65;;;8.50;;
7199;SDS011;3641;49.082;8.200;2023-06-22T01:56:12;13.43;;;8.48;;
7199;SDS011;3641;49.082;8.200;2023-06-22T01:58:41;11.23;;;8.73;;
7199;SDS011;3641;49.082;8.200;2023-06-22T02:01:13;12.93;;;8.98;;
7199;SDS011;3641;49.082;8.200;2023-06-22T02:06:31;15.05;;;8.88;;
7199;SDS011;3641;49.082;8.200;2023-06-22T02:09:02;13.52;;;8.90;;
7199;SDS011;3641;49.082;8.200;2023-06-22T02:11:34;18.45;;;8.48;;
7199;SDS011;3641;49.082;8.200;2023-06-22T02:14:02;12.60;;;8.88;;
7199;SDS011;3641;49.082;8.200;2023-06-22T02:16:30;18.40;;;9.15;;
7199;SDS011;3641;49.082;8.200;2023-06-22T02:18:57;14.25;;;8.93;;
7199;SDS011;3641;49.082;8.200;2023-06-22T02:21:29;14.20;;;9.10;;
7199;SDS011;3641;49.082;8.200;2023-06-22T02:23:55;13.75;;;8.93;;
7199;SDS011;3641;49.082;8.200;2023-06-22T02:26:22;13.05;;;8.93;;
7199;SDS011;3641;49.082;8.200;2023-06-22T02:28:50;13.88;;;8.93;;
7199;SDS011;3641;49.082;8.200;2023-06-22T02:31:17;12.77;;;8.20;;
7199;SDS011;3641;49.082;8.200;2023-06-22T02:33:44;14.05;;;9.30;;
7199;SDS011;3641;49.082;8.200;2023-06-22T02:36:12;14.30;;;9.13;;
7199;SDS011;3641;49.082;8.200;2023-06-22T02:38:38;13.15;;;8.85;;
7199;SDS011;3641;49.082;8.200;2023-06-22T02:41:13;15.80;;;9.73;;
7199;SDS011;3641;49.082;8.200;2023-06-22T02:43:43;13.00;;;9.15;;
7199;SDS011;3641;49.082;8.200;2023-06-22T02:46:09;16.17;;;10.05;;
7199;SDS011;3641;49.082;8.200;2023-06-22T02:48:36;14.35;;;9.77;;
7199;SDS011;3641;49.082;8.200;2023-06-22T02:51:02;16.70;;;9.88;;
7199;SDS011;3641;49.082;8.200;2023-06-22T02:53:30;14.23;;;9.73;;
7199;SDS011;3641;49.082;8.200;2023-06-22T02:55:57;16.08;;;9.55;;
7199;SDS011;3641;49.082;8.200;2023-06-22T02:58:26;14.48;;;9.50;;
7199;SDS011;3641;49.082;8.200;2023-06-22T03:00:52;13.98;;;9.93;;
7199;SDS011;3641;49.082;8.200;2023-06-22T03:03:19;15.68;;;10.07;;
7199;SDS011;3641;49.082;8.200;2023-06-22T03:05:45;17.20;;;9.85;;
7199;SDS011;3641;49.082;8.200;2023-06-22T03:08:12;14.20;;;10.35;;
7199;SDS011;3641;49.082;8.200;2023-06-22T03:10:40;14.93;;;9.75;;
7199;SDS011;3641;49.082;8.200;2023-06-22T03:13:06;15.05;;;9.52;;
7199;SDS011;3641;49.082;8.200;2023-06-22T03:15:33;14.40;;;9.93;;
7199;SDS011;3641;49.082;8.200;2023-06-22T03:17:59;13.48;;;9.23;;
7199;SDS011;3641;49.082;8.200;2023-06-22T03:20:26;15.48;;;10.10;;
7199;SDS011;3641;49.082;8.200;2023-06-22T03:22:55;13.77;;;9.48;;
7199;SDS011;3641;49.082;8.200;2023-06-22T03:25:21;12.45;;;9.60;;
7199;SDS011;3641;49.082;8.200;2023-06-22T03:27:49;14.48;;;9.75;;
7199;SDS011;3641;49.082;8.200;2023-06-22T03:30:15;16.02;;;10.55;;
7199;SDS011;3641;49.082;8.200;2023-06-22T03:32:42;15.68;;;9.85;;
7199;SDS011;3641;49.082;8.200;2023-06-22T03:35:09;14.07;;;10.05;;
7199;SDS011;3641;49.082;8.200;2023-06-22T03:37:38;15.57;;;9.52;;
7199;SDS011;3641;49.082;8.200;2023-06-22T03:40:05;19.13;;;10.50;;
7199;SDS011;3641;49.082;8.200;2023-06-22T03:42:33;20.15;;;10.88;;
7199;SDS011;3641;49.082;8.200;2023-06-22T03:45:01;14.27;;;10.05;;
7199;SDS011;3641;49.082;8.200;2023-06-22T03:47:28;17.17;;;10.90;;
7199;SDS011;3641;49.082;8.200;2023-06-22T03:49:55;16.90;;;10.15;;
7199;SDS011;3641;49.082;8.200;2023-06-22T03:52:21;19.75;;;11.10;;
7199;SDS011;3641;49.082;8.200;2023-06-22T03:54:48;21.65;;;11.15;;
7199;SDS011;3641;49.082;8.200;2023-06-22T03:57:14;18.92;;;10.65;;
7199;SDS011;3641;49.082;8.200;2023-06-22T03:59:41;19.63;;;12.20;;
7199;SDS011;3641;49.082;8.200;2023-06-22T04:02:09;22.13;;;12.48;;
7199;SDS011;3641;49.082;8.200;2023-06-22T04:04:35;24.17;;;11.68;;
7199;SDS011;3641;49.082;8.200;2023-06-22T04:07:03;18.52;;;12.00;;
7199;SDS011;3641;49.082;8.200;2023-06-22T04:09:30;20.20;;;11.80;;
7199;SDS011;3641;49.082;8.200;2023-06-22T04:11:57;24.10;;;12.35;;
7199;SDS011;3641;49.082;8.200;2023-06-22T04:14:23;16.77;;;11.90;;
7199;SDS011;3641;49.082;8.200;2023-06-22T04:16:51;19.00;;;12.25;;
7199;SDS011;3641;49.082;8.200;2023-06-22T04:19:19;21.90;;;12.95;;
7199;SDS011;3641;49.082;8.200;2023-06-22T04:21:45;24.30;;;12.85;;
7199;SDS011;3641;49.082;8.200;2023-06-22T04:24:13;20.83;;;12.55;;
7199;SDS011;3641;49.082;8.200;2023-06-22T04:26:40;24.13;;;14.00;;
7199;SDS011;3641;49.082;8.200;2023-06-22T04:29:07;22.08;;;13.85;;
7199;SDS011;3641;49.082;8.200;2023-06-22T04:31:34;22.15;;;13.43;;
7199;SDS011;3641;49.082;8.200;2023-06-22T04:34:02;19.92;;;11.90;;
7199;SDS011;3641;49.082;8.200;2023-06-22T04:36:33;18.90;;;12.45;;
7199;SDS011;3641;49.082;8.200;2023-06-22T04:39:03;16.48;;;11.75;;
7199;SDS011;3641;49.082;8.200;2023-06-22T04:41:34;18.95;;;12.23;;
7199;SDS011;3641;49.082;8.200;2023-06-22T04:44:07;24.13;;;12.18;;
7199;SDS011;3641;49.082;8.200;2023-06-22T04:46:35;25.00;;;12.50;;
7199;SDS011;3641;49.082;8.200;2023-06-22T04:49:03;20.40;;;12.20;;
7199;SDS011;3641;49.082;8.200;2023-06-22T04:51:36;20.40;;;12.40;;
7199;SDS011;3641;49.082;8.200;2023-06-22T04:54:03;22.17;;;12.82;;
7199;SDS011;3641;49.082;8.200;2023-06-22T04:56:30;17.30;;;11.65;;
7199;SDS011;3641;49.082;8.200;2023-06-22T04:58:57;18.70;;;12.32;;
7199;SDS011;3641;49.082;8.200;2023-06-22T05:01:23;22.02;;;12.40;;
7199;SDS011;3641;49.082;8.200;2023-06-22T05:03:50;18.80;;;11.60;;
7199;SDS011;3641;49.082;8.200;2023-06-22T05:06:20;19.17;;;12.40;;
7199;SDS011;3641;49.082;8.200;2023-06-22T05:08:50;23.08;;;12.90;;
7199;SDS011;3641;49.082;8.200;2023-06-22T05:11:17;19.48;;;13.27;;
7199;SDS011;3641;49.082;8.200;2023-06-22T05:13:44;18.42;;;12.48;;
7199;SDS011;3641;49.082;8.200;2023-06-22T05:16:10;21.02;;;13.25;;
7199;SDS011;3641;49.082;8.200;2023-06-22T05:18:37;21.50;;;12.65;;
7199;SDS011;3641;49.082;8.200;2023-06-22T05:21:03;17.40;;;11.57;;
7199;SDS011;3641;49.082;8.200;2023-06-22T05:23:30;25.00;;;12.27;;
7199;SDS011;3641;49.082;8.200;2023-06-22T05:25:57;22.45;;;12.05;;
7199;SDS011;3641;49.082;8.200;2023-06-22T05:28:24;17.45;;;11.52;;
7199;SDS011;3641;49.082;8.200;2023-06-22T05:30:50;17.63;;;11.65;;
7199;SDS011;3641;49.082;8.200;2023-06-22T05:33:17;19.20;;;11.68;;
7199;SDS011;3641;49.082;8.200;2023-06-22T05:35:43;16.27;;;11.48;;
7199;SDS011;3641;49.082;8.200;2023-06-22T05:38:10;17.92;;;11.80;;
7199;SDS011;3641;49.082;8.200;2023-06-22T05:40:36;15.57;;;10.90;;
7199;SDS011;3641;49.082;8.200;2023-06-22T05:43:04;18.27;;;10.75;;
7199;SDS011;3641;49.082;8.200;2023-06-22T05:45:30;16.27;;;10.05;;
7199;SDS011;3641;49.082;8.200;2023-06-22T05:47:57;18.08;;;10.80;;
7199;SDS011;3641;49.082;8.200;2023-06-22T05:50:23;18.42;;;10.85;;
7199;SDS011;3641;49.082;8.200;2023-06-22T05:52:50;16.77;;;9.93;;
7199;SDS011;3641;49.082;8.200;2023-06-22T05:55:16;17.38;;;9.75;;
7199;SDS011;3641;49.082;8.200;2023-06-22T05:57:44;14.88;;;9.82;;
7199;SDS011;3641;49.082;8.200;2023-06-22T06:00:12;14.15;;;9.48;;
7199;SDS011;3641;49.082;8.200;2023-06-22T06:02:39;13.40;;;8.95;;
7199;SDS011;3641;49.082;8.200;2023-06-22T06:05:08;12.95;;;9.65;;
7199;SDS011;3641;49.082;8.200;2023-06-22T06:07:35;12.63;;;9.02;;
7199;SDS011;3641;49.082;8.200;2023-06-22T06:10:02;17.05;;;9.88;;
7199;SDS011;3641;49.082;8.200;2023-06-22T06:12:29;15.23;;;9.18;;
7199;SDS011;3641;49.082;8.200;2023-06-22T06:14:56;14.35;;;9.30;;
7199;SDS011;3641;49.082;8.200;2023-06-22T06:17:23;13.43;;;9.07;;
7199;SDS011;3641;49.082;8.200;2023-06-22T06:19:50;14.25;;;9.18;;
7199;SDS011;3641;49.082;8.200;2023-06-22T06:22:17;18.40;;;9.50;;
7199;SDS011;3641;49.082;8.200;2023-06-22T06:24:46;14.20;;;9.02;;
7199;SDS011;3641;49.082;8.200;2023-06-22T06:27:12;13.73;;;9.20;;
7199;SDS011;3641;49.082;8.200;2023-06-22T06:29:39;16.42;;;9.57;;
7199;SDS011;3641;49.082;8.200;2023-06-22T06:32:06;16.23;;;9.30;;
7199;SDS011;3641;49.082;8.200;2023-06-22T06:34:35;14.95;;;9.65;;
7199;SDS011;3641;49.082;8.200;2023-06-22T06:37:01;15.25;;;8.50;;
7199;SDS011;3641;49.082;8.200;2023-06-22T06:39:28;14.15;;;8.80;;
7199;SDS011;3641;49.082;8.200;2023-06-22T06:41:54;15.10;;;8.60;;
7199;SDS011;3641;49.082;8.200;2023-06-22T06:44:21;13.63;;;8.95;;
7199;SDS011;3641;49.082;8.200;2023-06-22T06:46:47;19.95;;;9.27;;
7199;SDS011;3641;49.082;8.200;2023-06-22T06:49:13;13.20;;;9.00;;
7199;SDS011;3641;49.082;8.200;2023-06-22T06:51:41;15.85;;;8.80;;
7199;SDS011;3641;49.082;8.200;2023-06-22T06:54:08;16.02;;;9.40;;
7199;SDS011;3641;49.082;8.200;2023-06-22T06:59:21;15.02;;;8.93;;
7199;SDS011;3641;49.082;8.200;2023-06-22T07:01:48;12.95;;;8.60;;
7199;SDS011;3641;49.082;8.200;2023-06-22T07:04:14;14.40;;;8.98;;
7199;SDS011;3641;49.082;8.200;2023-06-22T07:06:42;12.73;;;9.25;;
7199;SDS011;3641;49.082;8.200;2023-06-22T07:09:09;17.05;;;9.82;;
7199;SDS011;3641;49.082;8.200;2023-06-22T07:11:35;14.13;;;9.13;;
7199;SDS011;3641;49.082;8.200;2023-06-22T07:14:01;18.08;;;8.93;;
7199;SDS011;3641;49.082;8.200;2023-06-22T07:16:28;16.02;;;9.15;;
7199;SDS011;3641;49.082;8.200;2023-06-22T07:18:56;14.02;;;8.68;;
7199;SDS011;3641;49.082;8.200;2023-06-22T07:21:22;17.08;;;9.02;;
7199;SDS011;3641;49.082;8.200;2023-06-22T07:23:50;14.23;;;8.70;;
7199;SDS011;3641;49.082;8.200;2023-06-22T07:26:17;13.40;;;9.27;;
7199;SDS011;3641;49.082;8.200;2023-06-22T07:28:43;11.77;;;8.60;;
7199;SDS011;3641;49.082;8.200;2023-06-22T07:31:10;12.48;;;8.38;;
7199;SDS011;3641;49.082;8.200;2023-06-22T07:33:36;15.75;;;9.10;;
7199;SDS011;3641;49.082;8.200;2023-06-22T07:36:03;13.10;;;9.75;;
7199;SDS011;3641;49.082;8.200;2023-06-22T07:38:32;12.43;;;8.20;;
7199;SDS011;3641;49.082;8.200;2023-06-22T07:41:00;19.83;;;10.50;;
7199;SDS011;3641;49.082;8.200;2023-06-22T07:43:27;19.65;;;10.90;;
7199;SDS011;3641;49.082;8.200;2023-06-22T07:45:55;14.82;;;8.95;;
7199;SDS011;3641;49.082;8.200;2023-06-22T07:48:21;16.17;;;9.35;;
7199;SDS011;3641;49.082;8.200;2023-06-22T07:50:48;14.18;;;8.68;;
7199;SDS011;3641;49.082;8.200;2023-06-22T07:53:15;13.73;;;8.48;;
7199;SDS011;3641;49.082;8.200;2023-06-22T07:55:41;12.73;;;8.13;;
7199;SDS011;3641;49.082;8.200;2023-06-22T07:58:09;12.80;;;8.20;;
7199;SDS011;3641;49.082;8.200;2023-06-22T08:00:36;14.30;;;7.90;;
7199;SDS011;3641;49.082;8.200;2023-06-22T08:03:02;13.60;;;7.78;;
7199;SDS011;3641;49.082;8.200;2023-06-22T08:05:30;12.40;;;8.85;;
7199;SDS011;3641;49.082;8.200;2023-06-22T08:07:57;13.13;;;8.15;;
7199;SDS011;3641;49.082;8.200;2023-06-22T08:10:23;13.90;;;7.32;;
7199;SDS011;3641;49.082;8.200;2023-06-22T08:12:50;12.15;;;8.10;;
7199;SDS011;3641;49.082;8.200;2023-06-22T08:15:19;13.77;;;7.90;;
7199;SDS011;3641;49.082;8.200;2023-06-22T08:17:47;12.90;;;8.02;;
7199;SDS011;3641;49.082;8.200;2023-06-22T08:20:13;14.00;;;8.27;;
7199;SDS011;3641;49.082;8.200;2023-06-22T08:22:40;14.80;;;8.35;;
7199;SDS011;3641;49.082;8.200;2023-06-22T08:25:08;16.17;;;8.60;;
7199;SDS011;3641;49.082;8.200;2023-06-22T08:27:34;13.63;;;7.95;;
7199;SDS011;3641;49.082;8.200;2023-06-22T08:30:01;12.50;;;7.55;;
7199;SDS011;3641;49.082;8.200;2023-06-22T08:32:30;13.63;;;8.95;;
7199;SDS011;3641;49.082;8.200;2023-06-22T08:34:57;16.30;;;8.20;;
7199;SDS011;3641;49.082;8.200;2023-06-22T08:37:24;14.07;;;8.02;;
7199;SDS011;3641;49.082;8.200;2023-06-22T08:39:55;10.95;;;7.38;;
7199;SDS011;3641;49.082;8.200;2023-06-22T08:42:22;11.02;;;7.65;;
7199;SDS011;3641;49.082;8.200;2023-06-22T08:44:49;12.07;;;8.05;;
7199;SDS011;3641;49.082;8.200;2023-06-22T08:47:15;13.20;;;7.93;;
7199;SDS011;3641;49.082;8.200;2023-06-22T08:49:43;11.18;;;8.00;;
7199;SDS011;3641;49.082;8.200;2023-06-22T08:52:10;14.88;;;8.63;;
7199;SDS011;3641;49.082;8.200;2023-06-22T08:54:36;12.57;;;7.90;;
7199;SDS011;3641;49.082;8.200;2023-06-22T08:57:03;11.77;;;7.72;;
7199;SDS011;3641;49.082;8.200;2023-06-22T08:59:30;13.48;;;8.75;;
7199;SDS011;3641;49.082;8.200;2023-06-22T09:01:56;14.05;;;8.20;;
7199;SDS011;3641;49.082;8.200;2023-06-22T09:04:23;12.43;;;7.93;;
7199;SDS011;3641;49.082;8.200;2023-06-22T09:06:51;14.57;;;7.50;;
7199;SDS011;3641;49.082;8.200;2023-06-22T09:09:18;13.50;;;7.40;;
7199;SDS011;3641;49.082;8.200;2023-06-22T09:11:47;14.07;;;8.73;;
7199;SDS011;3641;49.082;8.200;2023-06-22T09:14:14;12.35;;;7.78;;
7199;SDS011;3641;49.082;8.200;2023-06-22T09:16:41;11.27;;;8.25;;
7199;SDS011;3641;49.082;8.200;2023-06-22T09:19:07;17.08;;;8.43;;
7199;SDS011;3641;49.082;8.200;2023-06-22T09:21:34;15.52;;;8.65;;
7199;SDS011;3641;49.082;8.200;2023-06-22T09:24:02;13.45;;;8.15;;
7199;SDS011;3641;49.082;8.200;2023-06-22T09:26:29;12.45;;;7.63;;
7199;SDS011;3641;49.082;8.200;2023-06-22T09:28:55;11.95;;;7.50;;
7199;SDS011;3641;49.082;8.200;2023-06-22T09:31:22;11.13;;;7.32;;
7199;SDS011;3641;49.082;8.200;2023-06-22T09:33:51;15.57;;;8.00;;
7199;SDS011;3641;49.082;8.200;2023-06-22T09:36:18;12.82;;;7.43;;
7199;SDS011;3641;49.082;8.200;2023-06-22T09:38:44;12.40;;;7.18;;
7199;SDS011;3641;49.082;8.200;2023-06-22T09:41:12;13.35;;;7.20;;
7199;SDS011;3641;49.082;8.200;2023-06-22T09:43:38;14.77;;;7.75;;
7199;SDS011;3641;49.082;8.200;2023-06-22T09:46:05;11.98;;;7.78;;
7199;SDS011;3641;49.082;8.200;2023-06-22T09:48:32;13.27;;;7.72;;
7199;SDS011;3641;49.082;8.200;2023-06-22T09:50:58;13.77;;;7.55;;
7199;SDS011;3641;49.082;8.200;2023-06-22T09:53:25;13.88;;;7.50;;
7199;SDS011;3641;49.082;8.200;2023-06-22T09:55:51;15.07;;;7.32;;
7199;SDS011;3641;49.082;8.200;2023-06-22T09:58:19;12.20;;;7.80;;
7199;SDS011;3641;49.082;8.200;2023-06-22T10:00:48;12.68;;;7.25;;
7199;SDS011;3641;49.082;8.200;2023-06-22T10:03:15;12.50;;;7.45;;
7199;SDS011;3641;49.082;8.200;2023-06-22T10:05:41;19.30;;;8.15;;
7199;SDS011;3641;49.082;8.200;2023-06-22T10:08:08;14.15;;;7.68;;
7199;SDS011;3641;49.082;8.200;2023-06-22T10:10:35;15.68;;;7.57;;
7199;SDS011;3641;49.082;8.200;2023-06-22T10:13:02;12.85;;;7.45;;
7199;SDS011;3641;49.082;8.200;2023-06-22T10:15:35;14.48;;;7.35;;
7199;SDS011;3641;49.082;8.200;2023-06-22T10:18:02;13.02;;;7.25;;
7199;SDS011;3641;49.082;8.200;2023-06-22T10:20:28;13.48;;;7.47;;
7199;SDS011;3641;49.082;8.200;2023-06-22T10:22:55;12.35;;;7.40;;
7199;SDS011;3641;49.082;8.200;2023-06-22T10:25:22;11.35;;;6.68;;
7199;SDS011;3641;49.082;8.200;2023-06-22T10:27:48;13.02;;;7.57;;
7199;SDS011;3641;49.082;8.200;2023-06-22T10:30:15;11.27;;;6.75;;
7199;SDS011;3641;49.082;8.200;2023-06-22T10:32:43;14.43;;;6.60;;
7199;SDS011;3641;49.082;8.200;2023-06-22T10:35:09;12.52;;;6.88;;
7199;SDS011;3641;49.082;8.200;2023-06-22T10:37:38;12.68;;;7.05;;
7199;SDS011;3641;49.082;8.200;2023-06-22T10:40:05;15.32;;;7.10;;
7199;SDS011;3641;49.082;8.200;2023-06-22T10:42:33;12.02;;;7.05;;
7199;SDS011;3641;49.082;8.200;2023-06-22T10:44:59;9.80;;;6.65;;
7199;SDS011;3641;49.082;8.200;2023-06-22T10:47:26;14.68;;;6.97;;
7199;SDS011;3641;49.082;8.200;2023-06-22T10:49:54;11.02;;;6.88;;
7199;SDS011;3641;49.082;8.200;2023-06-22T10:52:20;10.43;;;6.65;;
7199;SDS011;3641;49.082;8.200;2023-06-22T10:54:47;13.30;;;7.18;;
7199;SDS011;3641;49.082;8.200;2023-06-22T10:57:13;14.30;;;7.38;;
7199;SDS011;3641;49.082;8.200;2023-06-22T10:59:40;11.13;;;6.15;;
7199;SDS011;3641;49.082;8.200;2023-06-22T11:02:06;11.52;;;7.28;;
7199;SDS011;3641;49.082;8.200;2023-06-22T11:04:32;14.00;;;6.97;;
7199;SDS011;3641;49.082;8.200;2023-06-22T11:07:00;11.10;;;6.57;;
7199;SDS011;3641;49.082;8.200;2023-06-22T11:09:27;12.18;;;6.65;;
7199;SDS011;3641;49.082;8.200;2023-06-22T11:11:53;13.15;;;7.57;;
7199;SDS011;3641;49.082;8.200;2023-06-22T11:14:20;13.60;;;6.88;;
7199;SDS011;3641;49.082;8.200;2023-06-22T11:16:46;12.07;;;6.40;;
7199;SDS011;3641;49.082;8.200;2023-06-22T11:19:13;9.25;;;6.30;;
7199;SDS011;3641;49.082;8.200;2023-06-22T11:21:39;11.88;;;6.28;;
7199;SDS011;3641;49.082;8.200;2023-06-22T11:24:07;14.98;;;7.20;;
7199;SDS011;3641;49.082;8.200;2023-06-22T11:26:34;12.23;;;6.75;;
7199;SDS011;3641;49.082;8.200;2023-06-22T11:29:00;12.40;;;6.50;;
7199;SDS011;3641;49.082;8.200;2023-06-22T11:31:30;13.43;;;6.85;;
7199;SDS011;3641;49.082;8.200;2023-06-22T11:33:56;12.60;;;6.70;;
7199;SDS011;3641;49.082;8.200;2023-06-22T11:36:23;15.65;;;7.65;;
7199;SDS011;3641;49.082;8.200;2023-06-22T11:38:49;22.65;;;12.52;;
7199;SDS011;3641;49.082;8.200;2023-06-22T11:41:17;21.27;;;11.63;;
7199;SDS011;3641;49.082;8.200;2023-06-22T11:43:44;20.85;;;8.15;;
7199;SDS011;3641;49.082;8.200;2023-06-22T11:46:11;15.75;;;6.55;;
7199;SDS011;3641;49.082;8.200;2023-06-22T11:48:37;10.13;;;6.65;;
7199;SDS011;3641;49.082;8.200;2023-06-22T11:51:04;12.18;;;6.70;;
7199;SDS011;3641;49.082;8.200;2023-06-22T11:53:31;16.52;;;6.40;;
7199;SDS011;3641;49.082;8.200;2023-06-22T11:55:57;16.02;;;6.75;;
7199;SDS011;3641;49.082;8.200;2023-06-22T11:58:26;13.00;;;6.15;;
7199;SDS011;3641;49.082;8.200;2023-06-22T12:00:53;14.02;;;6.78;;
7199;SDS011;3641;49.082;8.200;2023-06-22T12:03:20;15.43;;;7.07;;
7199;SDS011;3641;49.082;8.200;2023-06-22T12:05:47;15.80;;;7.22;;
7199;SDS011;3641;49.082;8.200;2023-06-22T12:08:14;15.50;;;7.22;;
7199;SDS011;3641;49.082;8.200;2023-06-22T12:10:40;13.85;;;6.90;;
7199;SDS011;3641;49.082;8.200;2023-06-22T12:13:07;14.25;;;7.13;;
7199;SDS011;3641;49.082;8.200;2023-06-22T12:15:35;12.02;;;6.60;;
7199;SDS011;3641;49.082;8.200;2023-06-22T12:18:01;18.48;;;7.63;;
7199;SDS011;3641;49.082;8.200;2023-06-22T12:20:28;13.73;;;7.18;;
7199;SDS011;3641;49.082;8.200;2023-06-22T12:22:54;15.60;;;7.35;;
7199;SDS011;3641;49.082;8.200;2023-06-22T12:25:23;13.52;;;7.50;;
7199;SDS011;3641;49.082;8.200;2023-06-22T12:27:49;14.40;;;7.50;;
7199;SDS011;3641;49.082;8.200;2023-06-22T12:30:16;13.38;;;7.15;;
7199;SDS011;3641;49.082;8.200;2023-06-22T12:32:44;12.68;;;7.45;;
7199;SDS011;3641;49.082;8.200;2023-06-22T12:35:10;11.57;;;7.35;;
7199;SDS011;3641;49.082;8.200;2023-06-22T12:37:39;14.13;;;7.85;;
7199;SDS011;3641;49.082;8.200;2023-06-22T12:40:06;17.55;;;7.45;;
7199;SDS011;3641;49.082;8.200;2023-06-22T12:42:33;11.85;;;7.10;;
7199;SDS011;3641;49.082;8.200;2023-06-22T12:45:00;12.98;;;7.50;;
7199;SDS011;3641;49.082;8.200;2023-06-22T12:47:26;14.68;;;7.65;;
7199;SDS011;3641;49.082;8.200;2023-06-22T12:49:54;13.95;;;7.50;;
7199;SDS011;3641;49.082;8.200;2023-06-22T12:52:21;14.77;;;7.75;;
7199;SDS011;3641;49.082;8.200;2023-06-22T12:54:48;21.95;;;7.80;;
7199;SDS011;3641;49.082;8.200;2023-06-22T12:57:14;13.43;;;6.80;;
7199;SDS011;3641;49.082;8.200;2023-06-22T12:59:42;12.88;;;6.90;;
7199;SDS011;3641;49.082;8.200;2023-06-22T13:02:09;14.90;;;7.05;;
7199;SDS011;3641;49.082;8.200;2023-06-22T13:04:35;13.60;;;6.85;;
7199;SDS011;3641;49.082;8.200;2023-06-22T13:07:03;13.88;;;6.93;;
7199;SDS011;3641;49.082;8.200;2023-06-22T13:09:30;16.63;;;7.10;;
7199;SDS011;3641;49.082;8.200;2023-06-22T13:11:57;15.13;;;7.43;;
7199;SDS011;3641;49.082;8.200;2023-06-22T13:14:23;15.38;;;6.95;;
7199;SDS011;3641;49.082;8.200;2023-06-22T13:16:50;13.95;;;7.07;;
7199;SDS011;3641;49.082;8.200;2023-06-22T13:19:16;14.68;;;6.82;;
7199;SDS011;3641;49.082;8.200;2023-06-22T13:21:43;17.60;;;8.27;;
7199;SDS011;3641;49.082;8.200;2023-06-22T13:24:11;13.50;;;7.22;;
7199;SDS011;3641;49.082;8.200;2023-06-22T13:26:37;15.45;;;6.85;;
7199;SDS011;3641;49.082;8.200;2023-06-22T13:29:04;15.50;;;6.55;;
7199;SDS011;3641;49.082;8.200;2023-06-22T13:31:30;14.73;;;5.90;;
7199;SDS011;3641;49.082;8.200;2023-06-22T13:33:57;12.32;;;5.95;;
7199;SDS011;3641;49.082;8.200;2023-06-22T13:36:23;15.13;;;6.47;;
7199;SDS011;3641;49.082;8.200;2023-06-22T13:38:50;16.67;;;6.13;;
7199;SDS011;3641;49.082;8.200;2023-06-22T13:41:17;15.13;;;6.45;;
7199;SDS011;3641;49.082;8.200;2023-06-22T13:43:44;16.73;;;6.25;;
7199;SDS011;3641;49.082;8.200;2023-06-22T13:46:10;16.70;;;6.53;;
7199;SDS011;3641;49.082;8.200;2023-06-22T13:48:37;11.95;;;6.13;;
7199;SDS011;3641;49.082;8.200;2023-06-22T13:51:03;12.30;;;5.78;;
7199;SDS011;3641;49.082;8.200;2023-06-22T13:53:30;13.35;;;6.40;;
7199;SDS011;3641;49.082;8.200;2023-06-22T13:55:56;16.50;;;6.05;;
7199;SDS011;3641;49.082;8.200;2023-06-22T13:58:24;14.20;;;6.50;;
7199;SDS011;3641;49.082;8.200;2023-06-22T14:00:51;17.67;;;6.75;;
7199;SDS011;3641;49.082;8.200;2023-06-22T14:03:17;15.23;;;7.28;;
7199;SDS011;3641;49.082;8.200;2023-06-22T14:05:44;13.93;;;7.00;;
7199;SDS011;3641;49.082;8.200;2023-06-22T14:08:11;14.45;;;7.18;;
7199;SDS011;3641;49.082;8.200;2023-06-22T14:10:37;13.43;;;7.38;;
7199;SDS011;3641;49.082;8.200;2023-06-22T14:13:04;12.10;;;6.72;;
7199;SDS011;3641;49.082;8.200;2023-06-22T14:15:33;17.42;;;7.60;;
7199;SDS011;3641;49.082;8.200;2023-06-22T14:17:59;19.27;;;8.25;;
7199;SDS011;3641;49.082;8.200;2023-06-22T14:20:26;20.55;;;9.10;;
7199;SDS011;3641;49.082;8.200;2023-06-22T14:22:52;17.90;;;8.48;;
7199;SDS011;3641;49.082;8.200;2023-06-22T14:25:19;19.88;;;8.13;;
7199;SDS011;3641;49.082;8.200;2023-06-22T14:27:45;19.48;;;9.50;;
7199;SDS011;3641;49.082;8.200;2023-06-22T14:30:11;13.80;;;9.43;;
7199;SDS011;3641;49.082;8.200;2023-06-22T14:32:39;16.20;;;8.85;;
7199;SDS011;3641;49.082;8.200;2023-06-22T14:35:06;16.33;;;6.30;;
7199;SDS011;3641;49.082;8.200;2023-06-22T14:37:33;12.38;;;7.00;;
7199;SDS011;3641;49.082;8.200;2023-06-22T14:39:59;14.88;;;6.75;;
7199;SDS011;3641;49.082;8.200;2023-06-22T14:42:26;16.80;;;6.57;;
7199;SDS011;3641;49.082;8.200;2023-06-22T14:44:53;15.23;;;6.57;;
7199;SDS011;3641;49.082;8.200;2023-06-22T14:47:20;13.82;;;5.40;;
7199;SDS011;3641;49.082;8.200;2023-06-22T14:49:48;15.90;;;5.80;;
7199;SDS011;3641;49.082;8.200;2023-06-22T14:52:14;15.23;;;5.95;;
7199;SDS011;3641;49.082;8.200;2023-06-22T14:54:41;13.38;;;5.25;;
7199;SDS011;3641;49.082;8.200;2023-06-22T14:57:07;12.27;;;5.32;;
7199;SDS011;3641;49.082;8.200;2023-06-22T14:59:34;14.10;;;5.20;;
7199;SDS011;3641;49.082;8.200;2023-06-22T15:02:00;13.73;;;5.40;;
7199;SDS011;3641;49.082;8.200;2023-06-22T15:04:27;12.35;;;5.00;;
7199;SDS011;3641;49.082;8.200;2023-06-22T15:06:58;12.50;;;4.38;;